sensor_id;sensor_type;location;lat;lon;timestamp;P1;durP1;ratioP1;P2;durP2;ratioP2
18194;SDS011;9223;50.988;3.162;2023-08-12T00:05:55;4.55;;;2.10;;
18194;SDS011;9223;50.988;3.162;2023-08-12T00:12:01;5.55;;;2.05;;
18194;SDS011;9223;50.988;3.162;2023-08-12T00:18:05;5.93;;;2.50;;
18194;SDS011;9223;50.988;3.162;2023-08-12T00:24:08;5.15;;;2.28;;
18194;SDS011;9223;50.988;3.162;2023-08-12T00:30:13;2.97;;;1.85;;
18194;SDS011;9223;50.988;3.162;2023-08-12T00:36:17;1.50;;;1.00;;
18194;SDS011;9223;50.988;3.162;2023-08-12T00:42:21;1.95;;;1.40;;
18194;SDS011;9223;50.988;3.162;2023-08-12T00:48:26;3.00;;;1.88;;
18194;SDS011;9223;50.988;3.162;2023-08-12T00:54:29;2.33;;;1.55;;
18194;SDS011;9223;50.988;3.162;2023-08-12T01:00:33;2.55;;;1.30;;
18194;SDS011;9223;50.988;3.162;2023-08-12T01:06:38;3.17;;;1.38;;
18194;SDS011;9223;50.988;3.162;2023-08-12T01:12:45;2.90;;;1.40;;
18194;SDS011;9223;50.988;3.162;2023-08-12T01:18:50;3.05;;;1.30;;
18194;SDS011;9223;50.988;3.162;2023-08-12T01:24:56;5.07;;;1.60;;
18194;SDS011;9223;50.988;3.162;2023-08-12T01:31:01;2.95;;;1.52;;
18194;SDS011;9223;50.988;3.162;2023-08-12T01:37:07;3.95;;;1.77;;
18194;SDS011;9223;50.988;3.162;2023-08-12T01:43:14;2.97;;;1.50;;
18194;SDS011;9223;50.988;3.162;2023-08-12T01:49:17;2.90;;;1.95;;
18194;SDS011;9223;50.988;3.162;2023-08-12T01:55:21;3.53;;;2.17;;
18194;SDS011;9223;50.988;3.162;2023-08-12T02:01:26;5.68;;;2.30;;
18194;SDS011;9223;50.988;3.162;2023-08-12T02:07:29;3.75;;;2.05;;
18194;SDS011;9223;50.988;3.162;2023-08-12T02:13:33;4.43;;;2.47;;
18194;SDS011;9223;50.988;3.162;2023-08-12T02:19:38;3.95;;;2.22;;
18194;SDS011;9223;50.988;3.162;2023-08-12T02:25:41;4.45;;;2.45;;
18194;SDS011;9223;50.988;3.162;2023-08-12T02:31:46;4.88;;;2.35;;
18194;SDS011;9223;50.988;3.162;2023-08-12T02:37:51;6.68;;;2.65;;
18194;SDS011;9223;50.988;3.162;2023-08-12T02:43:54;6.60;;;3.05;;
18194;SDS011;9223;50.988;3.162;2023-08-12T02:49:58;6.13;;;3.17;;
18194;SDS011;9223;50.988;3.162;2023-08-12T02:56:03;5.47;;;2.72;;
18194;SDS011;9223;50.988;3.162;2023-08-12T03:02:07;6.88;;;3.55;;
18194;SDS011;9223;50.988;3.162;2023-08-12T03:08:10;4.47;;;2.78;;
18194;SDS011;9223;50.988;3.162;2023-08-12T03:14:15;4.03;;;2.90;;
18194;SDS011;9223;50.988;3.162;2023-08-12T03:20:19;6.15;;;3.25;;
18194;SDS011;9223;50.988;3.162;2023-08-12T03:26:22;4.75;;;3.15;;
18194;SDS011;9223;50.988;3.162;2023-08-12T03:32:27;4.97;;;3.78;;
18194;SDS011;9223;50.988;3.162;2023-08-12T03:38:31;3.70;;;3.40;;
18194;SDS011;9223;50.988;3.162;2023-08-12T03:44:37;3.67;;;2.63;;
18194;SDS011;9223;50.988;3.162;2023-08-12T03:50:42;3.08;;;2.30;;
18194;SDS011;9223;50.988;3.162;2023-08-12T03:56:48;3.38;;;2.55;;
18194;SDS011;9223;50.988;3.162;2023-08-12T04:02:51;3.30;;;2.60;;
18194;SDS011;9223;50.988;3.162;2023-08-12T04:08:56;3.40;;;3.10;;
18194;SDS011;9223;50.988;3.162;2023-08-12T04:15:00;2.92;;;2.50;;
18194;SDS011;9223;50.988;3.162;2023-08-12T04:21:06;1.85;;;1.73;;
18194;SDS011;9223;50.988;3.162;2023-08-12T04:27:11;2.45;;;1.45;;
18194;SDS011;9223;50.988;3.162;2023-08-12T04:33:15;2.10;;;1.13;;
18194;SDS011;9223;50.988;3.162;2023-08-12T04:39:19;1.60;;;1.48;;
18194;SDS011;9223;50.988;3.162;2023-08-12T04:45:25;1.52;;;1.40;;
18194;SDS011;9223;50.988;3.162;2023-08-12T04:51:29;2.50;;;2.30;;
18194;SDS011;9223;50.988;3.162;2023-08-12T04:57:32;2.60;;;1.85;;
18194;SDS011;9223;50.988;3.162;2023-08-12T05:03:38;1.77;;;1.67;;
18194;SDS011;9223;50.988;3.162;2023-08-12T05:09:42;4.25;;;1.95;;
18194;SDS011;9223;50.988;3.162;2023-08-12T05:15:46;3.17;;;1.52;;
18194;SDS011;9223;50.988;3.162;2023-08-12T05:21:51;3.65;;;1.92;;
18194;SDS011;9223;50.988;3.162;2023-08-12T05:27:54;3.03;;;1.20;;
18194;SDS011;9223;50.988;3.162;2023-08-12T05:33:58;1.48;;;1.20;;
18194;SDS011;9223;50.988;3.162;2023-08-12T05:40:03;1.33;;;0.80;;
18194;SDS011;9223;50.988;3.162;2023-08-12T05:46:10;3.03;;;1.02;;
18194;SDS011;9223;50.988;3.162;2023-08-12T05:52:13;3.15;;;0.77;;
18194;SDS011;9223;50.988;3.162;2023-08-12T05:58:18;1.80;;;0.73;;
18194;SDS011;9223;50.988;3.162;2023-08-12T06:04:22;2.65;;;0.90;;
18194;SDS011;9223;50.988;3.162;2023-08-12T06:10:26;1.20;;;0.73;;
18194;SDS011;9223;50.988;3.162;2023-08-12T06:16:31;2.35;;;0.70;;
18194;SDS011;9223;50.988;3.162;2023-08-12T06:22:34;2.53;;;0.80;;
18194;SDS011;9223;50.988;3.162;2023-08-12T06:28:38;3.20;;;1.20;;
18194;SDS011;9223;50.988;3.162;2023-08-12T06:34:43;1.92;;;0.95;;
18194;SDS011;9223;50.988;3.162;2023-08-12T06:40:46;2.42;;;0.85;;
18194;SDS011;9223;50.988;3.162;2023-08-12T06:46:50;2.00;;;0.68;;
18194;SDS011;9223;50.988;3.162;2023-08-12T06:52:55;1.58;;;0.80;;
18194;SDS011;9223;50.988;3.162;2023-08-12T06:58:58;1.52;;;0.88;;
18194;SDS011;9223;50.988;3.162;2023-08-12T07:05:02;2.53;;;1.10;;
18194;SDS011;9223;50.988;3.162;2023-08-12T07:11:07;1.25;;;0.90;;
18194;SDS011;9223;50.988;3.162;2023-08-12T07:17:11;2.58;;;1.13;;
18194;SDS011;9223;50.988;3.162;2023-08-12T07:23:16;1.95;;;0.73;;
18194;SDS011;9223;50.988;3.162;2023-08-12T07:29:26;3.03;;;0.93;;
18194;SDS011;9223;50.988;3.162;2023-08-12T07:35:34;2.03;;;0.57;;
18194;SDS011;9223;50.988;3.162;2023-08-12T07:41:39;2.85;;;1.30;;
18194;SDS011;9223;50.988;3.162;2023-08-12T07:47:45;2.85;;;1.50;;
18194;SDS011;9223;50.988;3.162;2023-08-12T07:53:50;2.03;;;1.00;;
18194;SDS011;9223;50.988;3.162;2023-08-12T07:59:55;2.03;;;1.15;;
18194;SDS011;9223;50.988;3.162;2023-08-12T08:06:03;1.40;;;0.90;;
18194;SDS011;9223;50.988;3.162;2023-08-12T08:12:10;2.80;;;1.38;;
18194;SDS011;9223;50.988;3.162;2023-08-12T08:18:19;1.65;;;0.90;;
18194;SDS011;9223;50.988;3.162;2023-08-12T08:24:30;1.10;;;0.80;;
18194;SDS011;9223;50.988;3.162;2023-08-12T08:30:40;3.88;;;1.17;;
18194;SDS011;9223;50.988;3.162;2023-08-12T08:36:50;1.88;;;1.20;;
18194;SDS011;9223;50.988;3.162;2023-08-12T08:43:02;2.65;;;0.90;;
18194;SDS011;9223;50.988;3.162;2023-08-12T08:49:07;2.22;;;0.75;;
18194;SDS011;9223;50.988;3.162;2023-08-12T08:55:12;2.55;;;0.82;;
18194;SDS011;9223;50.988;3.162;2023-08-12T09:01:19;3.13;;;1.15;;
18194;SDS011;9223;50.988;3.162;2023-08-12T09:07:23;3.47;;;1.30;;
18194;SDS011;9223;50.988;3.162;2023-08-12T09:13:27;2.00;;;0.93;;
18194;SDS011;9223;50.988;3.162;2023-08-12T09:19:32;3.50;;;1.13;;
18194;SDS011;9223;50.988;3.162;2023-08-12T09:25:37;3.55;;;1.10;;
18194;SDS011;9223;50.988;3.162;2023-08-12T09:31:44;2.70;;;1.15;;
18194;SDS011;9223;50.988;3.162;2023-08-12T09:37:49;2.63;;;1.10;;
18194;SDS011;9223;50.988;3.162;2023-08-12T09:43:52;2.20;;;1.17;;
18194;SDS011;9223;50.988;3.162;2023-08-12T09:49:56;2.15;;;1.33;;
18194;SDS011;9223;50.988;3.162;2023-08-12T09:56:03;2.85;;;1.02;;
18194;SDS011;9223;50.988;3.162;2023-08-12T10:02:09;2.53;;;1.35;;
18194;SDS011;9223;50.988;3.162;2023-08-12T10:08:15;3.10;;;1.02;;
18194;SDS011;9223;50.988;3.162;2023-08-12T10:14:21;2.97;;;1.35;;
18194;SDS011;9223;50.988;3.162;2023-08-12T10:20:25;4.22;;;1.30;;
18194;SDS011;9223;50.988;3.162;2023-08-12T10:26:29;4.65;;;1.40;;
18194;SDS011;9223;50.988;3.162;2023-08-12T10:32:35;2.90;;;1.10;;
18194;SDS011;9223;50.988;3.162;2023-08-12T10:38:39;2.35;;;1.08;;
18194;SDS011;9223;50.988;3.162;2023-08-12T10:44:49;3.17;;;1.10;;
18194;SDS011;9223;50.988;3.162;2023-08-12T10:50:55;4.05;;;1.30;;
18194;SDS011;9223;50.988;3.162;2023-08-12T10:57:08;4.75;;;1.42;;
18194;SDS011;9223;50.988;3.162;2023-08-12T11:03:16;3.90;;;1.05;;
18194;SDS011;9223;50.988;3.162;2023-08-12T11:09:21;4.75;;;1.70;;
18194;SDS011;9223;50.988;3.162;2023-08-12T11:15:31;5.05;;;1.08;;
18194;SDS011;9223;50.988;3.162;2023-08-12T11:21:35;4.30;;;1.20;;
18194;SDS011;9223;50.988;3.162;2023-08-12T11:27:41;5.45;;;1.30;;
18194;SDS011;9223;50.988;3.162;2023-08-12T11:33:45;4.88;;;1.30;;
18194;SDS011;9223;50.988;3.162;2023-08-12T11:39:51;4.50;;;1.23;;
18194;SDS011;9223;50.988;3.162;2023-08-12T11:45:56;4.68;;;1.50;;
18194;SDS011;9223;50.988;3.162;2023-08-12T11:51:59;4.60;;;1.48;;
18194;SDS011;9223;50.988;3.162;2023-08-12T11:58:03;2.55;;;1.10;;
18194;SDS011;9223;50.988;3.162;2023-08-12T12:04:09;4.57;;;1.60;;
18194;SDS011;9223;50.988;3.162;2023-08-12T12:10:13;3.92;;;1.15;;
18194;SDS011;9223;50.988;3.162;2023-08-12T12:16:17;4.40;;;1.45;;
18194;SDS011;9223;50.988;3.162;2023-08-12T12:22:27;6.22;;;2.22;;
18194;SDS011;9223;50.988;3.162;2023-08-12T12:28:31;8.15;;;1.98;;
18194;SDS011;9223;50.988;3.162;2023-08-12T12:34:34;5.65;;;1.88;;
18194;SDS011;9223;50.988;3.162;2023-08-12T12:40:40;5.15;;;2.00;;
18194;SDS011;9223;50.988;3.162;2023-08-12T12:46:43;4.75;;;1.80;;
18194;SDS011;9223;50.988;3.162;2023-08-12T12:52:47;4.00;;;1.25;;
18194;SDS011;9223;50.988;3.162;2023-08-12T12:58:52;4.07;;;1.58;;
18194;SDS011;9223;50.988;3.162;2023-08-12T13:04:55;6.20;;;1.98;;
18194;SDS011;9223;50.988;3.162;2023-08-12T13:10:58;1.75;;;1.17;;
18194;SDS011;9223;50.988;3.162;2023-08-12T13:17:04;3.45;;;1.33;;
18194;SDS011;9223;50.988;3.162;2023-08-12T13:23:07;4.45;;;1.48;;
18194;SDS011;9223;50.988;3.162;2023-08-12T13:29:11;4.18;;;1.48;;
18194;SDS011;9223;50.988;3.162;2023-08-12T13:35:16;4.53;;;1.70;;
18194;SDS011;9223;50.988;3.162;2023-08-12T13:41:20;7.93;;;1.67;;
18194;SDS011;9223;50.988;3.162;2023-08-12T13:47:23;3.55;;;1.67;;
18194;SDS011;9223;50.988;3.162;2023-08-12T13:53:28;3.92;;;1.50;;
18194;SDS011;9223;50.988;3.162;2023-08-12T13:59:32;5.85;;;1.80;;
18194;SDS011;9223;50.988;3.162;2023-08-12T14:05:35;5.75;;;1.65;;
18194;SDS011;9223;50.988;3.162;2023-08-12T14:11:40;3.63;;;1.40;;
18194;SDS011;9223;50.988;3.162;2023-08-12T14:17:44;3.30;;;1.52;;
18194;SDS011;9223;50.988;3.162;2023-08-12T14:23:47;4.35;;;1.50;;
18194;SDS011;9223;50.988;3.162;2023-08-12T14:29:52;3.33;;;1.40;;
18194;SDS011;9223;50.988;3.162;2023-08-12T14:35:57;5.22;;;1.52;;
18194;SDS011;9223;50.988;3.162;2023-08-12T14:42:00;2.95;;;1.27;;
18194;SDS011;9223;50.988;3.162;2023-08-12T14:48:07;3.17;;;1.40;;
18194;SDS011;9223;50.988;3.162;2023-08-12T14:54:10;4.07;;;1.77;;
18194;SDS011;9223;50.988;3.162;2023-08-12T15:00:14;2.67;;;1.30;;
18194;SDS011;9223;50.988;3.162;2023-08-12T15:06:19;4.15;;;1.20;;
18194;SDS011;9223;50.988;3.162;2023-08-12T15:12:22;5.10;;;1.27;;
18194;SDS011;9223;50.988;3.162;2023-08-12T15:18:26;2.65;;;1.13;;
18194;SDS011;9223;50.988;3.162;2023-08-12T15:24:31;3.08;;;1.38;;
18194;SDS011;9223;50.988;3.162;2023-08-12T15:30:35;2.33;;;1.00;;
18194;SDS011;9223;50.988;3.162;2023-08-12T15:36:39;6.90;;;1.42;;
18194;SDS011;9223;50.988;3.162;2023-08-12T15:42:44;3.05;;;1.02;;
18194;SDS011;9223;50.988;3.162;2023-08-12T15:48:51;3.08;;;0.90;;
18194;SDS011;9223;50.988;3.162;2023-08-12T15:54:54;3.17;;;1.25;;
18194;SDS011;9223;50.988;3.162;2023-08-12T16:00:59;4.20;;;1.10;;
18194;SDS011;9223;50.988;3.162;2023-08-12T16:07:03;2.65;;;1.50;;
18194;SDS011;9223;50.988;3.162;2023-08-12T16:13:09;3.40;;;1.23;;
18194;SDS011;9223;50.988;3.162;2023-08-12T16:19:14;5.50;;;1.40;;
18194;SDS011;9223;50.988;3.162;2023-08-12T16:25:25;4.88;;;1.38;;
18194;SDS011;9223;50.988;3.162;2023-08-12T16:31:29;3.95;;;1.25;;
18194;SDS011;9223;50.988;3.162;2023-08-12T16:37:34;4.70;;;1.60;;
18194;SDS011;9223;50.988;3.162;2023-08-12T16:43:39;3.53;;;1.45;;
18194;SDS011;9223;50.988;3.162;2023-08-12T16:49:44;11.07;;;2.50;;
18194;SDS011;9223;50.988;3.162;2023-08-12T16:55:49;6.80;;;2.72;;
18194;SDS011;9223;50.988;3.162;2023-08-12T17:01:52;5.40;;;2.00;;
18194;SDS011;9223;50.988;3.162;2023-08-12T17:07:56;6.82;;;1.50;;
18194;SDS011;9223;50.988;3.162;2023-08-12T17:14:01;3.17;;;1.13;;
18194;SDS011;9223;50.988;3.162;2023-08-12T17:20:07;5.80;;;1.40;;
18194;SDS011;9223;50.988;3.162;2023-08-12T17:26:10;3.75;;;1.33;;
18194;SDS011;9223;50.988;3.162;2023-08-12T17:32:15;5.38;;;1.20;;
18194;SDS011;9223;50.988;3.162;2023-08-12T17:38:19;5.15;;;1.15;;
18194;SDS011;9223;50.988;3.162;2023-08-12T17:44:22;4.43;;;1.10;;
18194;SDS011;9223;50.988;3.162;2023-08-12T17:50:27;5.97;;;1.83;;
18194;SDS011;9223;50.988;3.162;2023-08-12T17:56:31;6.30;;;1.88;;
18194;SDS011;9223;50.988;3.162;2023-08-12T18:02:34;6.60;;;2.10;;
18194;SDS011;9223;50.988;3.162;2023-08-12T18:08:39;5.68;;;1.83;;
18194;SDS011;9223;50.988;3.162;2023-08-12T18:14:43;4.50;;;1.70;;
18194;SDS011;9223;50.988;3.162;2023-08-12T18:20:46;8.60;;;1.90;;
18194;SDS011;9223;50.988;3.162;2023-08-12T18:26:51;5.47;;;1.50;;
18194;SDS011;9223;50.988;3.162;2023-08-12T18:32:55;4.53;;;1.60;;
18194;SDS011;9223;50.988;3.162;2023-08-12T18:38:58;3.80;;;1.20;;
18194;SDS011;9223;50.988;3.162;2023-08-12T18:45:04;2.63;;;0.98;;
18194;SDS011;9223;50.988;3.162;2023-08-12T18:51:08;3.70;;;1.00;;
18194;SDS011;9223;50.988;3.162;2023-08-12T18:57:11;4.18;;;1.02;;
18194;SDS011;9223;50.988;3.162;2023-08-12T19:03:16;3.75;;;1.15;;
18194;SDS011;9223;50.988;3.162;2023-08-12T19:09:22;7.32;;;1.33;;
18194;SDS011;9223;50.988;3.162;2023-08-12T19:15:26;4.18;;;1.48;;
18194;SDS011;9223;50.988;3.162;2023-08-12T19:21:31;7.32;;;1.50;;
18194;SDS011;9223;50.988;3.162;2023-08-12T19:27:34;7.13;;;1.80;;
18194;SDS011;9223;50.988;3.162;2023-08-12T19:33:38;5.93;;;1.67;;
18194;SDS011;9223;50.988;3.162;2023-08-12T19:39:43;6.50;;;1.65;;
18194;SDS011;9223;50.988;3.162;2023-08-12T19:45:47;6.63;;;1.60;;
18194;SDS011;9223;50.988;3.162;2023-08-12T19:51:50;3.47;;;1.67;;
18194;SDS011;9223;50.988;3.162;2023-08-12T19:57:55;3.22;;;1.50;;
18194;SDS011;9223;50.988;3.162;2023-08-12T20:03:58;3.50;;;1.50;;
18194;SDS011;9223;50.988;3.162;2023-08-12T20:10:03;6.00;;;1.42;;
18194;SDS011;9223;50.988;3.162;2023-08-12T20:16:08;3.22;;;1.30;;
18194;SDS011;9223;50.988;3.162;2023-08-12T20:22:12;4.68;;;1.80;;
18194;SDS011;9223;50.988;3.162;2023-08-12T20:28:16;6.10;;;2.13;;
18194;SDS011;9223;50.988;3.162;2023-08-12T20:34:23;7.60;;;1.80;;
18194;SDS011;9223;50.988;3.162;2023-08-12T20:40:26;6.30;;;1.85;;
18194;SDS011;9223;50.988;3.162;2023-08-12T20:46:30;7.18;;;1.83;;
18194;SDS011;9223;50.988;3.162;2023-08-12T20:52:35;5.30;;;1.50;;
18194;SDS011;9223;50.988;3.162;2023-08-12T20:58:39;7.55;;;1.80;;
18194;SDS011;9223;50.988;3.162;2023-08-12T21:04:42;6.43;;;1.60;;
18194;SDS011;9223;50.988;3.162;2023-08-12T21:10:51;3.42;;;1.02;;
18194;SDS011;9223;50.988;3.162;2023-08-12T21:16:54;4.20;;;1.60;;
18194;SDS011;9223;50.988;3.162;2023-08-12T21:22:58;4.80;;;1.15;;
18194;SDS011;9223;50.988;3.162;2023-08-12T21:29:03;6.20;;;2.05;;
18194;SDS011;9223;50.988;3.162;2023-08-12T21:35:07;5.82;;;1.40;;
18194;SDS011;9223;50.988;3.162;2023-08-12T21:41:11;8.25;;;1.70;;
18194;SDS011;9223;50.988;3.162;2023-08-12T21:47:18;7.47;;;1.90;;
18194;SDS011;9223;50.988;3.162;2023-08-12T21:53:22;7.03;;;1.75;;
18194;SDS011;9223;50.988;3.162;2023-08-12T21:59:25;6.97;;;1.88;;
18194;SDS011;9223;50.988;3.162;2023-08-12T22:05:30;4.57;;;1.60;;
18194;SDS011;9223;50.988;3.162;2023-08-12T22:11:34;7.32;;;2.58;;
18194;SDS011;9223;50.988;3.162;2023-08-12T22:17:38;4.43;;;1.88;;
18194;SDS011;9223;50.988;3.162;2023-08-12T22:23:45;7.95;;;2.55;;
18194;SDS011;9223;50.988;3.162;2023-08-12T22:29:48;4.60;;;1.92;;
18194;SDS011;9223;50.988;3.162;2023-08-12T22:35:52;6.60;;;2.10;;
18194;SDS011;9223;50.988;3.162;2023-08-12T22:41:56;4.50;;;2.10;;
18194;SDS011;9223;50.988;3.162;2023-08-12T22:48:01;7.70;;;2.17;;
18194;SDS011;9223;50.988;3.162;2023-08-12T22:54:04;5.00;;;2.08;;
18194;SDS011;9223;50.988;3.162;2023-08-12T23:00:10;6.78;;;1.77;;
18194;SDS011;9223;50.988;3.162;2023-08-12T23:06:14;4.68;;;1.88;;
18194;SDS011;9223;50.988;3.162;2023-08-12T23:12:17;8.65;;;2.10;;
18194;SDS011;9223;50.988;3.162;2023-08-12T23:18:22;5.82;;;2.28;;
18194;SDS011;9223;50.988;3.162;2023-08-12T23:24:27;6.70;;;2.50;;
18194;SDS011;9223;50.988;3.162;2023-08-12T23:30:30;5.53;;;1.60;;
18194;SDS011;9223;50.988;3.162;2023-08-12T23:36:35;3.53;;;1.73;;
18194;SDS011;9223;50.988;3.162;2023-08-12T23:42:39;4.93;;;2.08;;
18194;SDS011;9223;50.988;3.162;2023-08-12T23:48:43;7.03;;;2.20;;
18194;SDS011;9223;50.988;3.162;2023-08-12T23:54:48;8.63;;;2.25;;
